Time;durP1;ratioP1;P1;durP2;ratioP2;P2;SDS_P1;SDS_P2;PMS_P1;PMS_P2;Temp;Humidity;BMP_temperature;BMP_pressure;BME280_temperature;BME280_humidity;BME280_pressure;Samples;Min_cycle;Max_cycle;Signal;HPM_P1;HPM_P2
2022/12/30 00:04:28;;;;;;;;;;;;;;;7.77;78.58;97769.06;5067161;28;19951;-68
2022/12/30 00:06:56;;;;;;;;;;;;;;;7.81;78.66;97791.72;5065853;28;19936;-69
2022/12/30 00:09:24;;;;;;;;;;;;;;;7.73;79.32;97778.88;5051908;28;20421;-69
2022/12/30 00:11:54;;;;;;;;;;;;;;;7.70;79.15;97787.56;5047198;28;19925;-68
2022/12/30 00:33:52;;;;;;;;;;;;;;;7.44;80.18;97797.19;5058036;28;20290;-68
2022/12/30 00:36:20;;;;;;;;;;;;;;;7.38;80.75;97795.66;5054104;28;19925;-68
2022/12/30 00:38:48;;;;;;;;;;;;;;;7.50;80.10;97801.41;5076225;28;19929;-68
2022/12/30 00:44:04;;;;;;;;;;;;;;;7.40;80.23;97796.16;5066241;28;19928;-68
2022/12/30 00:46:32;;;;;;;;;;;;;;;7.42;80.06;97791.28;5063683;28;19925;-69
2022/12/30 00:57:21;;;;;;;;;;;;;;;7.32;80.71;97793.03;5055741;28;19924;-68
2022/12/30 00:59:50;;;;;;;;;;;;;;;7.35;80.71;97784.34;5063094;28;19925;-68
2022/12/30 01:02:18;;;;;;;;;;;;;;;7.29;80.64;97790.91;5061590;28;19925;-69
2022/12/30 01:04:47;;;;;;;;;;;;;;;7.32;81.07;97803.03;5062991;28;20316;-69
2022/12/30 01:07:15;;;;;;;;;;;;;;;7.40;80.17;97809.66;5068039;28;19978;-69
2022/12/30 01:09:45;;;;;;;;;;;;;;;7.41;80.38;97809.41;5066561;28;19966;-68
2022/12/30 01:12:13;;;;;;;;;;;;;;;7.40;80.09;97818.56;5053280;28;19952;-69
2022/12/30 01:14:45;;;;;;;;;;;;;;;7.40;80.14;97821.28;5064541;28;19932;-67
2022/12/30 01:20:07;;;;;;;;;;;;;;;7.32;79.97;97819.25;5059366;28;20022;-68
2022/12/30 01:22:35;;;;;;;;;;;;;;;7.31;80.25;97831.16;5053616;28;19936;-69
2022/12/30 01:30:50;;;;;;;;;;;;;;;7.20;80.60;97840.50;5030501;28;19924;-69
2022/12/30 01:33:20;;;;;;;;;;;;;;;7.12;80.37;97838.44;5056192;28;19924;-69
2022/12/30 01:35:48;;;;;;;;;;;;;;;7.08;81.11;97836.34;5055016;28;19925;-69
2022/12/30 01:38:16;;;;;;;;;;;;;;;7.09;81.06;97840.63;5055051;28;19929;-68
2022/12/30 01:40:45;;;;;;;;;;;;;;;7.11;80.78;97843.03;5052724;28;19940;-68
2022/12/30 01:43:15;;;;;;;;;;;;;;;7.05;81.13;97846.91;5057276;28;20378;-69
2022/12/30 01:45:43;;;;;;;;;;;;;;;7.00;81.31;97844.25;5061929;28;19932;-68
2022/12/30 01:48:15;;;;;;;;;;;;;;;7.02;80.80;97850.16;5055031;28;19928;-69
2022/12/30 01:50:46;;;;;;;;;;;;;;;6.96;81.35;97851.31;5057949;28;19929;-68
2022/12/30 01:53:14;;;;;;;;;;;;;;;6.99;81.21;97866.97;5051827;28;19928;-69
2022/12/30 01:55:43;;;;;;;;;;;;;;;6.91;81.75;97870.28;5071675;28;19925;-69
2022/12/30 01:58:12;;;;;;;;;;;;;;;6.90;81.54;97874.09;5056160;28;19939;-68
2022/12/30 02:00:40;;;;;;;;;;;;;;;6.88;81.46;97879.00;5051614;28;19924;-68
2022/12/30 02:03:07;;;;;;;;;;;;;;;6.93;81.12;97884.34;5065562;28;20338;-68
2022/12/30 02:05:37;;;;;;;;;;;;;;;6.96;80.50;97889.94;5065036;28;20453;-68
2022/12/30 02:08:09;;;;;;;;;;;;;;;6.93;81.12;97892.44;5067938;28;20336;-68
2022/12/30 02:10:39;;;;;;;;;;;;;;;6.90;81.65;97893.00;5057762;28;19925;-68
2022/12/30 02:16:07;;;;;;;;;;;;;;;6.93;81.15;97895.13;5065733;28;19925;-69
2022/12/30 02:18:39;;;;;;;;;;;;;;;6.90;81.65;97901.91;5060539;28;19959;-68
2022/12/30 02:21:16;;;;;;;;;;;;;;;6.90;81.55;97901.09;5052288;28;19955;-68
2022/12/30 02:24:05;;;;;;;;;;;;;;;6.86;81.90;97903.56;5070028;28;19925;-68
2022/12/30 02:26:39;;;;;;;;;;;;;;;6.88;81.83;97908.69;5059327;28;19928;-69
2022/12/30 02:29:15;;;;;;;;;;;;;;;6.84;82.46;97913.84;5067688;28;19924;-68
2022/12/30 02:31:45;;;;;;;;;;;;;;;6.80;82.48;97916.31;5051263;28;20397;-69
2022/12/30 02:34:16;;;;;;;;;;;;;;;6.83;82.38;97906.84;5070470;28;19932;-69
2022/12/30 02:36:45;;;;;;;;;;;;;;;6.72;82.36;97905.34;5062027;28;20007;-68
2022/12/30 02:39:15;;;;;;;;;;;;;;;6.67;82.31;97903.50;5057846;28;19929;-69
2022/12/30 02:44:38;;;;;;;;;;;;;;;6.64;82.89;97911.38;5060093;28;19924;-69
2022/12/30 02:47:10;;;;;;;;;;;;;;;6.69;82.43;97912.13;5060014;28;20357;-69
2022/12/30 02:52:30;;;;;;;;;;;;;;;6.57;82.83;97907.09;5052967;28;19968;-68
2022/12/30 02:54:58;;;;;;;;;;;;;;;6.64;82.34;97909.47;5052814;28;20377;-69
2022/12/30 02:57:27;;;;;;;;;;;;;;;6.57;82.74;97914.41;5056100;28;19932;-68
2022/12/30 03:05:49;;;;;;;;;;;;;;;6.52;82.55;97927.94;4980662;28;19933;-68
2022/12/30 03:08:20;;;;;;;;;;;;;;;6.42;83.12;97928.03;4979127;28;20024;-68
2022/12/30 03:13:35;;;;;;;;;;;;;;;6.35;83.71;97932.97;5042679;28;19925;-68
2022/12/30 03:16:05;;;;;;;;;;;;;;;6.39;83.34;97928.59;5064851;28;20337;-68
2022/12/30 03:18:34;;;;;;;;;;;;;;;6.42;83.06;97930.72;5061759;28;19925;-68
2022/12/30 03:21:02;;;;;;;;;;;;;;;6.33;83.26;97927.84;5051240;28;19925;-69
2022/12/30 03:29:29;;;;;;;;;;;;;;;6.19;83.33;97940.38;5065270;28;19990;-68
2022/12/30 03:31:57;;;;;;;;;;;;;;;6.16;83.63;97943.63;5051884;28;19924;-68
2022/12/30 03:34:27;;;;;;;;;;;;;;;6.23;83.37;97941.41;5069717;28;19925;-68
2022/12/30 03:36:55;;;;;;;;;;;;;;;6.30;83.44;97952.69;5069523;28;19924;-68
2022/12/30 03:39:25;;;;;;;;;;;;;;;6.17;83.62;97954.13;5058711;28;19931;-68
2022/12/30 03:41:53;;;;;;;;;;;;;;;6.26;83.33;97963.25;5059910;28;20565;-68
2022/12/30 03:44:21;;;;;;;;;;;;;;;6.24;83.38;97970.81;5069280;28;19990;-68
2022/12/30 03:46:49;;;;;;;;;;;;;;;6.35;82.79;97971.53;5047679;28;19928;-68
2022/12/30 03:49:18;;;;;;;;;;;;;;;6.42;83.02;97971.22;5064632;28;19929;-69
2022/12/30 03:51:50;;;;;;;;;;;;;;;6.49;82.81;97967.09;5043507;28;20024;-69
2022/12/30 03:54:18;;;;;;;;;;;;;;;6.51;82.83;97974.94;5055996;28;19929;-69
2022/12/30 03:56:46;;;;;;;;;;;;;;;6.56;82.69;97978.38;5046034;28;19929;-68
2022/12/30 03:59:14;;;;;;;;;;;;;;;6.63;81.81;97978.06;5052402;28;19932;-68
2022/12/30 04:02:07;;;;;;;;;;;;;;;6.67;81.84;97962.09;5071471;28;19924;-68
2022/12/30 04:04:35;;;;;;;;;;;;;;;6.71;81.86;97955.84;5053230;28;19935;-68
2022/12/30 04:07:05;;;;;;;;;;;;;;;6.75;80.87;97959.56;5065959;28;20472;-68
2022/12/30 04:09:32;;;;;;;;;;;;;;;6.72;81.09;97956.66;5065539;28;19932;-69
2022/12/30 04:12:00;;;;;;;;;;;;;;;6.78;81.63;97959.00;5065536;28;19981;-68
2022/12/30 04:14:28;;;;;;;;;;;;;;;6.79;81.34;97963.31;5064823;28;19925;-68
2022/12/30 04:16:56;;;;;;;;;;;;;;;6.74;81.50;97962.56;5067963;28;19924;-69
2022/12/30 04:19:24;;;;;;;;;;;;;;;6.71;81.25;97966.66;5067774;28;19931;-69
2022/12/30 04:21:52;;;;;;;;;;;;;;;6.63;81.58;97982.66;5059508;28;19939;-68
2022/12/30 04:24:21;;;;;;;;;;;;;;;6.64;81.43;97984.25;5057327;28;20389;-68
2022/12/30 04:26:53;;;;;;;;;;;;;;;6.56;81.52;97993.78;5061600;28;19931;-69
2022/12/30 04:29:22;;;;;;;;;;;;;;;6.53;81.98;97997.03;5057290;28;19924;-69
2022/12/30 04:31:53;;;;;;;;;;;;;;;6.58;81.86;97994.28;5066377;28;19955;-68
2022/12/30 04:34:21;;;;;;;;;;;;;;;6.69;81.60;97987.72;5055988;28;19982;-68
2022/12/30 04:36:49;;;;;;;;;;;;;;;6.63;81.82;97988.84;5067896;28;19930;-68
2022/12/30 04:39:18;;;;;;;;;;;;;;;6.61;82.27;97990.22;5059768;28;19924;-68
2022/12/30 04:41:47;;;;;;;;;;;;;;;6.58;82.22;97997.00;5072396;28;19929;-69
2022/12/30 04:44:15;;;;;;;;;;;;;;;6.50;82.32;98001.13;5070445;28;19932;-68
2022/12/30 04:46:43;;;;;;;;;;;;;;;6.45;82.41;98005.75;5069349;28;19924;-68
2022/12/30 04:49:14;;;;;;;;;;;;;;;6.35;82.79;98003.94;5068164;28;19939;-69
2022/12/30 04:51:44;;;;;;;;;;;;;;;6.29;82.78;97994.25;5052910;28;20275;-68
2022/12/30 04:54:12;;;;;;;;;;;;;;;6.34;82.80;98001.50;5067475;28;19939;-68
2022/12/30 04:56:40;;;;;;;;;;;;;;;6.17;83.10;97997.28;5071189;28;19951;-69
2022/12/30 04:59:10;;;;;;;;;;;;;;;6.13;83.00;98011.63;5055486;28;20401;-68
2022/12/30 05:02:03;;;;;;;;;;;;;;;6.08;83.57;97999.00;5068186;28;20354;-69
2022/12/30 05:04:31;;;;;;;;;;;;;;;6.07;83.54;98002.75;5064406;28;19932;-68
2022/12/30 05:06:59;;;;;;;;;;;;;;;6.03;84.06;98007.91;5054065;28;19925;-68
2022/12/30 05:09:27;;;;;;;;;;;;;;;6.03;83.96;98007.91;5052858;28;19925;-68
2022/12/30 05:11:55;;;;;;;;;;;;;;;6.03;83.72;98007.13;5066706;28;19964;-68
2022/12/30 05:14:47;;;;;;;;;;;;;;;6.02;83.59;98006.31;5052738;22;19925;-77
2022/12/30 05:17:17;;;;;;;;;;;;;;;5.93;83.39;98007.16;5038070;28;20327;-75
2022/12/30 05:19:46;;;;;;;;;;;;;;;5.97;83.33;98008.22;5024403;28;19925;-75
2022/12/30 05:22:14;;;;;;;;;;;;;;;5.95;83.58;98008.50;5016675;28;20295;-75
2022/12/30 05:27:52;;;;;;;;;;;;;;;5.90;83.56;98011.19;5034273;28;19975;-74
2022/12/30 05:30:26;;;;;;;;;;;;;;;6.05;83.07;98007.63;5040489;28;19936;-75
2022/12/30 05:32:58;;;;;;;;;;;;;;;6.00;83.08;98008.47;5039319;28;19929;-76
2022/12/30 05:35:26;;;;;;;;;;;;;;;6.00;83.08;98002.25;5033479;28;19925;-77
2022/12/30 05:37:53;;;;;;;;;;;;;;;5.97;83.13;97998.25;5037981;28;20016;-77
2022/12/30 05:40:21;;;;;;;;;;;;;;;5.97;83.24;98008.22;5031193;28;19924;-77
2022/12/30 05:42:50;;;;;;;;;;;;;;;5.94;83.00;98006.88;5053852;28;19936;-77
2022/12/30 05:45:17;;;;;;;;;;;;;;;5.98;82.92;98020.63;5043428;28;19930;-77
2022/12/30 05:50:40;;;;;;;;;;;;;;;6.02;82.27;98022.50;5027789;28;20023;-77
2022/12/30 05:53:12;;;;;;;;;;;;;;;5.96;82.16;98039.75;5033968;28;19932;-77
2022/12/30 05:55:41;;;;;;;;;;;;;;;5.91;82.42;98041.66;5046039;28;20307;-74
2022/12/30 05:58:09;;;;;;;;;;;;;;;5.88;82.64;98044.91;5036437;28;19932;-74
2022/12/30 06:00:38;;;;;;;;;;;;;;;5.88;82.58;98036.81;5046650;28;19933;-73
2022/12/30 06:03:06;;;;;;;;;;;;;;;5.72;82.56;98044.97;5028697;28;20295;-74
2022/12/30 06:05:34;;;;;;;;;;;;;;;5.83;82.81;98044.94;5032788;28;20283;-74
2022/12/30 06:08:03;;;;;;;;;;;;;;;5.82;82.50;98048.72;5036692;28;19929;-74
2022/12/30 06:10:32;;;;;;;;;;;;;;;5.78;82.26;98059.25;5023945;28;20411;-74
2022/12/30 06:13:01;;;;;;;;;;;;;;;5.50;83.09;98056.13;5026594;28;19930;-74
2022/12/30 06:15:29;;;;;;;;;;;;;;;5.49;83.72;98054.50;5030613;28;19925;-76
2022/12/30 06:17:57;;;;;;;;;;;;;;;5.48;83.38;98054.75;5050580;28;19929;-76
2022/12/30 06:20:25;;;;;;;;;;;;;;;5.48;83.44;98050.19;5036092;28;19925;-77
2022/12/30 06:22:53;;;;;;;;;;;;;;;5.50;83.45;98048.03;5036326;28;19983;-76
2022/12/30 06:25:22;;;;;;;;;;;;;;;5.48;83.55;98038.59;5048028;28;20407;-75
2022/12/30 06:28:15;;;;;;;;;;;;;;;5.60;83.08;98039.09;5048853;28;20269;-76
2022/12/30 06:30:43;;;;;;;;;;;;;;;5.63;82.61;98046.63;5046111;28;19993;-77
2022/12/30 06:33:11;;;;;;;;;;;;;;;5.55;82.60;98043.72;5068158;28;19925;-78
2022/12/30 06:35:45;;;;;;;;;;;;;;;5.53;82.87;98038.56;5047076;28;19945;-77
2022/12/30 06:38:13;;;;;;;;;;;;;;;5.53;82.53;98033.19;5050824;28;20342;-77
2022/12/30 06:40:44;;;;;;;;;;;;;;;5.49;82.62;98032.16;5045058;28;19932;-77
2022/12/30 06:43:12;;;;;;;;;;;;;;;5.34;82.96;98042.97;5042937;28;20024;-77
2022/12/30 06:45:41;;;;;;;;;;;;;;;5.33;83.24;98042.16;5059993;28;19933;-74
2022/12/30 06:48:09;;;;;;;;;;;;;;;5.36;83.01;98052.38;5051423;28;19928;-73
2022/12/30 06:50:37;;;;;;;;;;;;;;;5.40;83.12;98049.94;5031874;28;20407;-73
2022/12/30 06:56:24;;;;;;;;;;;;;;;5.20;83.03;98046.22;5061910;28;20067;-70
2022/12/30 06:58:52;;;;;;;;;;;;;;;5.34;83.14;98051.06;5052195;28;20284;-70
2022/12/30 07:01:20;;;;;;;;;;;;;;;5.15;83.74;98059.69;5040437;28;20265;-71
2022/12/30 07:03:48;;;;;;;;;;;;;;;5.29;83.66;98064.53;5053546;28;19925;-71
2022/12/30 07:06:16;;;;;;;;;;;;;;;5.26;83.15;98069.38;5044592;28;19958;-70
2022/12/30 07:08:46;;;;;;;;;;;;;;;5.26;83.18;98066.66;5052346;28;19925;-70
2022/12/30 07:11:14;;;;;;;;;;;;;;;5.28;83.30;98062.94;5058145;28;19924;-70
2022/12/30 07:13:44;;;;;;;;;;;;;;;5.22;83.30;98068.31;5036749;28;19948;-74
2022/12/30 07:16:12;;;;;;;;;;;;;;;5.22;83.02;98062.94;5044843;28;19933;-73
2022/12/30 07:18:40;;;;;;;;;;;;;;;5.13;83.69;98061.88;5052237;28;20408;-72
2022/12/30 07:21:08;;;;;;;;;;;;;;;5.08;83.70;98056.50;5046314;28;19925;-74
2022/12/30 07:23:36;;;;;;;;;;;;;;;5.26;83.35;98058.59;5048312;28;20291;-74
2022/12/30 07:26:04;;;;;;;;;;;;;;;5.20;83.03;98070.47;5049715;28;20015;-77
2022/12/30 07:28:36;;;;;;;;;;;;;;;5.26;82.47;98071.25;5047839;28;19925;-75
2022/12/30 07:31:08;;;;;;;;;;;;;;;5.34;82.42;98064.53;5045745;28;19956;-77
2022/12/30 07:33:36;;;;;;;;;;;;;;;5.23;82.61;98055.66;5039054;28;19980;-74
2022/12/30 07:36:05;;;;;;;;;;;;;;;5.21;82.71;98066.69;5021615;28;20379;-75
2022/12/30 07:38:34;;;;;;;;;;;;;;;5.26;82.63;98063.97;5039563;28;19947;-75
2022/12/30 07:41:03;;;;;;;;;;;;;;;5.34;82.29;98059.94;5048169;28;20267;-76
2022/12/30 07:43:31;;;;;;;;;;;;;;;5.30;82.30;98058.06;5042986;28;19971;-77
2022/12/30 07:45:59;;;;;;;;;;;;;;;5.39;81.97;98067.22;5062877;22;19924;-62
2022/12/30 07:48:28;;;;;;;;;;;;;;;5.26;81.89;98063.97;5086141;28;20270;-62
2022/12/30 07:50:59;;;;;;;;;;;;;;;5.38;81.90;98066.41;5084384;28;19997;-62
2022/12/30 07:53:27;;;;;;;;;;;;;;;5.38;81.69;98070.97;5090181;28;19928;-61
2022/12/30 07:55:55;;;;;;;;;;;;;;;5.41;81.53;98059.66;5088041;28;19931;-62
2022/12/30 07:58:23;;;;;;;;;;;;;;;5.29;82.34;98067.22;5101029;28;19925;-62
2022/12/30 08:00:50;;;;;;;;;;;;;;;5.41;82.06;98070.41;5090715;28;19924;-62
2022/12/30 08:03:19;;;;;;;;;;;;;;;5.32;82.48;98066.66;5087434;28;19934;-62
2022/12/30 08:05:48;;;;;;;;;;;;;;;5.35;82.32;98068.81;5085733;28;19935;-62
2022/12/30 08:08:16;;;;;;;;;;;;;;;5.38;82.50;98054.78;5098094;28;19936;-61
2022/12/30 08:10:53;;;;;;;;;;;;;;;5.41;81.89;98065.03;5090574;28;19924;-63
2022/12/30 08:13:25;;;;;;;;;;;;;;;5.29;82.75;98057.25;5091678;28;19925;-61
2022/12/30 08:15:53;;;;;;;;;;;;;;;5.30;82.47;98058.06;5092228;28;19924;-62
2022/12/30 08:18:21;;;;;;;;;;;;;;;5.17;82.94;98054.88;5088320;28;19924;-62
2022/12/30 08:20:52;;;;;;;;;;;;;;;5.20;83.29;98062.38;5097052;28;19951;-62
2022/12/30 08:23:20;;;;;;;;;;;;;;;5.23;83.55;98064.53;5095291;28;20415;-62
2022/12/30 08:25:48;;;;;;;;;;;;;;;5.32;83.58;98074.75;5086537;28;19947;-62
2022/12/30 08:28:23;;;;;;;;;;;;;;;5.32;83.52;98072.06;5087388;28;19924;-61
2022/12/30 08:30:52;;;;;;;;;;;;;;;5.41;82.99;98060.44;5090510;28;20319;-61
2022/12/30 08:33:20;;;;;;;;;;;;;;;5.32;83.35;98056.69;5086658;28;19932;-63
2022/12/30 08:35:50;;;;;;;;;;;;;;;5.43;83.28;98061.00;5083684;28;19928;-63
2022/12/30 08:41:13;;;;;;;;;;;;;;;5.52;82.92;98072.00;5099922;28;20023;-62
2022/12/30 08:43:41;;;;;;;;;;;;;;;5.52;82.99;98066.63;5089572;28;19993;-62
2022/12/30 08:46:09;;;;;;;;;;;;;;;5.60;82.90;98071.44;5092944;28;19923;-62
2022/12/30 08:48:39;;;;;;;;;;;;;;;5.73;81.98;98070.84;5097876;28;19966;-62
2022/12/30 08:51:10;;;;;;;;;;;;;;;5.72;82.21;98071.94;5112388;28;19931;-62
2022/12/30 08:53:40;;;;;;;;;;;;;;;5.73;82.08;98073.53;5116530;28;19923;-62
2022/12/30 08:56:09;;;;;;;;;;;;;;;5.69;82.35;98072.47;5102229;28;19939;-62
2022/12/30 08:58:38;;;;;;;;;;;;;;;5.72;81.90;98071.94;5116000;28;20436;-61
2022/12/30 09:01:09;;;;;;;;;;;;;;;5.79;82.07;98064.34;5129478;27;19924;-62
2022/12/30 09:03:39;;;;;;;;;;;;;;;5.76;82.03;98067.63;5116034;28;19931;-62
2022/12/30 09:06:07;;;;;;;;;;;;;;;5.81;81.95;98064.09;5097439;28;19936;-62
2022/12/30 09:09:01;;;;;;;;;;;;;;;5.81;81.89;98056.00;5115502;28;19923;-62
2022/12/30 09:11:31;;;;;;;;;;;;;;;5.90;81.44;98043.53;5112650;28;19928;-61
2022/12/30 09:14:00;;;;;;;;;;;;;;;5.98;81.23;98036.81;5115208;28;19965;-61
2022/12/30 09:16:28;;;;;;;;;;;;;;;6.03;81.05;98044.88;5105940;28;19923;-62
2022/12/30 09:18:57;;;;;;;;;;;;;;;6.04;80.94;98047.28;5115634;28;19927;-61
2022/12/30 09:21:25;;;;;;;;;;;;;;;6.14;80.77;98051.81;5115070;28;20281;-61
2022/12/30 09:23:53;;;;;;;;;;;;;;;6.23;80.58;98060.09;5113752;28;20399;-61
2022/12/30 09:26:46;;;;;;;;;;;;;;;6.24;80.47;98067.94;5115400;28;19924;-61
2022/12/30 09:29:17;;;;;;;;;;;;;;;6.29;80.53;98064.41;5113294;28;19923;-61
2022/12/30 09:31:46;;;;;;;;;;;;;;;6.42;79.75;98060.28;5114641;28;20295;-61
2022/12/30 09:34:13;;;;;;;;;;;;;;;6.38;79.79;98075.41;5100009;28;19962;-61
2022/12/30 09:36:41;;;;;;;;;;;;;;;6.47;78.83;98068.34;5113067;28;19935;-61
2022/12/30 09:39:10;;;;;;;;;;;;;;;6.63;78.81;98052.84;5096120;28;19924;-61
2022/12/30 09:44:50;;;;;;;;;;;;;;;6.63;79.01;98047.44;5109090;28;20300;-62
2022/12/30 09:47:21;;;;;;;;;;;;;;;6.68;78.91;98055.50;5109106;28;19923;-62
2022/12/30 09:49:56;;;;;;;;;;;;;;;6.59;79.14;98057.97;5081507;28;19947;-61
2022/12/30 09:52:26;;;;;;;;;;;;;;;6.70;78.73;98043.31;5090876;28;20312;-62
2022/12/30 09:54:55;;;;;;;;;;;;;;;6.81;78.02;98042.13;5111579;28;19930;-61
2022/12/30 09:57:32;;;;;;;;;;;;;;;6.79;78.47;98032.72;5115092;27;19935;-62
2022/12/30 10:00:03;;;;;;;;;;;;;;;6.67;78.15;98030.41;5120609;27;20023;-63
2022/12/30 10:02:52;;;;;;;;;;;;;;;6.73;78.11;98018.47;5109072;28;19927;-61
2022/12/30 10:05:22;;;;;;;;;;;;;;;6.80;78.68;98016.22;5094525;28;20026;-61
2022/12/30 10:07:52;;;;;;;;;;;;;;;6.78;78.53;98007.63;5111718;28;19932;-61
2022/12/30 10:10:21;;;;;;;;;;;;;;;6.89;78.65;97994.03;5113161;28;19930;-61
2022/12/30 10:12:51;;;;;;;;;;;;;;;6.98;78.47;98000.41;5102363;28;19963;-61
2022/12/30 10:15:24;;;;;;;;;;;;;;;7.07;77.91;97988.69;5093541;28;20330;-62
2022/12/30 10:18:10;;;;;;;;;;;;;;;7.13;77.08;97988.63;5080686;28;20274;-61
2022/12/30 10:20:43;;;;;;;;;;;;;;;7.26;77.13;97985.25;5096012;27;19931;-61
2022/12/30 10:23:12;;;;;;;;;;;;;;;7.21;77.08;97980.72;5097578;28;19963;-61
2022/12/30 10:25:42;;;;;;;;;;;;;;;7.18;77.95;97981.28;5099407;28;19924;-62
2022/12/30 10:28:15;;;;;;;;;;;;;;;7.43;76.92;97979.38;5087763;28;19977;-64
2022/12/30 10:30:44;;;;;;;;;;;;;;;7.51;77.02;97965.19;5084288;27;19932;-63
2022/12/30 10:33:14;;;;;;;;;;;;;;;7.61;75.81;97965.06;5096481;27;19985;-62
2022/12/30 10:35:44;;;;;;;;;;;;;;;7.65;74.93;97963.41;5089186;28;20310;-63
2022/12/30 10:38:13;;;;;;;;;;;;;;;7.56;75.38;97955.16;5109366;28;19967;-62
2022/12/30 10:40:43;;;;;;;;;;;;;;;7.55;75.70;97947.31;5101623;28;19924;-62
2022/12/30 10:43:25;;;;;;;;;;;;;;;7.58;75.21;97944.03;5109744;28;19988;-62
2022/12/30 10:46:00;;;;;;;;;;;;;;;7.51;75.14;97949.81;5079746;28;20378;-62
2022/12/30 10:48:32;;;;;;;;;;;;;;;7.55;75.46;97941.91;5067601;28;19928;-62
2022/12/30 10:51:02;;;;;;;;;;;;;;;7.53;76.12;97938.69;5052882;28;20353;-63
2022/12/30 10:53:30;;;;;;;;;;;;;;;7.71;75.96;97937.09;5065632;28;20051;-64
2022/12/30 10:56:00;;;;;;;;;;;;;;;7.51;75.48;97927.34;5037726;28;20381;-62
2022/12/30 10:58:29;;;;;;;;;;;;;;;7.68;75.69;97922.28;5056432;28;19929;-63
2022/12/30 11:00:57;;;;;;;;;;;;;;;7.72;75.39;97928.69;5038307;28;19924;-62
2022/12/30 11:03:51;;;;;;;;;;;;;;;7.75;74.97;97917.28;5062626;28;19931;-63
2022/12/30 11:06:22;;;;;;;;;;;;;;;7.84;75.27;97912.03;5049201;28;20368;-62
2022/12/30 11:08:50;;;;;;;;;;;;;;;7.79;75.05;97909.41;5062118;28;19924;-62
2022/12/30 11:11:18;;;;;;;;;;;;;;;7.80;75.43;97903.69;5054275;28;19982;-62
2022/12/30 11:16:44;;;;;;;;;;;;;;;7.86;74.38;97896.31;5068896;28;20347;-63
2022/12/30 11:22:12;;;;;;;;;;;;;;;7.64;73.54;97902.31;5064890;28;19924;-62
2022/12/30 11:24:44;;;;;;;;;;;;;;;7.68;73.96;97903.34;5065782;28;19931;-62
2022/12/30 11:27:14;;;;;;;;;;;;;;;7.71;73.34;97900.03;5050199;28;20295;-63
2022/12/30 11:29:47;;;;;;;;;;;;;;;7.60;73.21;97891.28;5073676;28;20375;-64
2022/12/30 11:32:15;;;;;;;;;;;;;;;7.63;73.98;97884.50;5056626;28;19954;-62
2022/12/30 11:34:43;;;;;;;;;;;;;;;7.72;73.38;97879.22;5071902;28;19931;-63
2022/12/30 11:37:31;;;;;;;;;;;;;;;7.78;73.20;97883.47;5074946;28;20370;-63
2022/12/30 11:40:28;;;;;;;;;;;;;;;7.60;73.65;97874.25;5080813;28;19931;-65
2022/12/30 11:43:05;;;;;;;;;;;;;;;7.68;74.04;97879.00;5064348;28;19932;-63
2022/12/30 11:45:34;;;;;;;;;;;;;;;7.70;73.45;97873.31;5055505;28;19924;-62
2022/12/30 11:48:02;;;;;;;;;;;;;;;7.71;73.92;97870.28;5108526;28;20299;-63
2022/12/30 11:50:30;;;;;;;;;;;;;;;7.68;73.02;97878.22;5107682;28;20360;-63
2022/12/30 11:53:02;;;;;;;;;;;;;;;7.75;73.02;97873.22;5092454;28;19928;-63
2022/12/30 11:55:55;;;;;;;;;;;;;;;7.69;72.43;97866.28;5107537;28;19939;-62
2022/12/30 11:58:23;;;;;;;;;;;;;;;7.72;73.63;97869.19;5111084;28;20372;-62
2022/12/30 12:00:57;;;;;;;;;;;;;;;7.64;73.19;97856.34;5117927;27;19959;-62
2022/12/30 12:03:51;;;;;;;;;;;;;;;7.56;73.00;97862.41;5114552;28;19934;-64
2022/12/30 12:06:19;;;;;;;;;;;;;;;7.60;72.92;97866.13;5116410;27;19974;-62
2022/12/30 12:08:50;;;;;;;;;;;;;;;7.61;73.55;97863.13;5098737;28;19931;-63
2022/12/30 12:11:18;;;;;;;;;;;;;;;7.55;73.42;97860.81;5114425;28;19932;-64
2022/12/30 12:13:48;;;;;;;;;;;;;;;7.61;73.24;97857.72;5112711;28;20339;-63
2022/12/30 12:16:41;;;;;;;;;;;;;;;7.56;73.35;97851.59;5096916;28;19925;-62
2022/12/30 12:19:13;;;;;;;;;;;;;;;7.60;72.67;97856.13;5129403;27;19924;-62
2022/12/30 12:21:41;;;;;;;;;;;;;;;7.66;72.60;97864.16;5116553;27;19924;-62
2022/12/30 12:24:16;;;;;;;;;;;;;;;7.58;72.82;97857.53;5115724;27;19931;-63
2022/12/30 12:26:45;;;;;;;;;;;;;;;7.65;72.18;97852.53;5115702;28;19959;-63
2022/12/30 12:29:14;;;;;;;;;;;;;;;7.61;73.09;97856.94;5107824;28;19974;-62
2022/12/30 12:31:46;;;;;;;;;;;;;;;7.38;73.20;97853.22;5108551;28;19931;-62
2022/12/30 12:34:17;;;;;;;;;;;;;;;7.57;73.59;97856.72;5077450;28;19931;-62
2022/12/30 12:36:48;;;;;;;;;;;;;;;7.52;73.73;97858.72;5113149;28;19924;-62
2022/12/30 12:39:19;;;;;;;;;;;;;;;7.65;73.75;97867.97;5110545;27;19927;-62
2022/12/30 12:41:55;;;;;;;;;;;;;;;7.59;73.45;97867.25;5110394;28;19924;-62
2022/12/30 12:44:37;;;;;;;;;;;;;;;7.70;73.63;97870.59;5113903;28;19927;-63
2022/12/30 12:47:09;;;;;;;;;;;;;;;7.76;73.18;97864.81;5083639;28;19928;-62
2022/12/30 12:49:41;;;;;;;;;;;;;;;7.91;72.15;97838.63;5118007;27;19968;-62
2022/12/30 12:52:36;;;;;;;;;;;;;;;8.00;71.81;97828.75;5108624;27;19947;-62
2022/12/30 12:55:32;;;;;;;;;;;;;;;8.01;71.75;97824.94;5093370;28;19931;-62
2022/12/30 12:58:03;;;;;;;;;;;;;;;8.11;72.17;97832.88;5080874;28;19978;-63
2022/12/30 13:00:36;;;;;;;;;;;;;;;8.06;71.62;97822.16;5093135;28;19927;-62
2022/12/30 13:03:15;;;;;;;;;;;;;;;7.89;71.99;97817.31;5111341;28;20371;-62
2022/12/30 13:05:48;;;;;;;;;;;;;;;8.00;72.85;97804.41;5103139;28;19928;-63
2022/12/30 13:08:20;;;;;;;;;;;;;;;7.85;72.68;97797.34;5090198;28;19935;-62
2022/12/30 13:10:48;;;;;;;;;;;;;;;7.96;72.94;97782.53;5092259;28;21077;-62
2022/12/30 13:13:39;;;;;;;;;;;;;;;7.82;72.23;97793.31;5106201;28;19939;-62
2022/12/30 13:16:08;;;;;;;;;;;;;;;7.68;73.06;97783.56;5126218;27;20303;-63
2022/12/30 13:18:37;;;;;;;;;;;;;;;7.68;72.96;97787.06;5090814;28;19938;-63
2022/12/30 13:21:06;;;;;;;;;;;;;;;7.64;73.33;97771.75;5105947;28;19928;-62
2022/12/30 13:23:34;;;;;;;;;;;;;;;7.72;73.01;97774.56;5111283;27;19924;-62
2022/12/30 13:26:04;;;;;;;;;;;;;;;7.62;73.53;97769.34;5110278;27;19931;-62
2022/12/30 13:28:32;;;;;;;;;;;;;;;7.54;73.90;97765.38;5108057;27;19931;-62
2022/12/30 13:31:05;;;;;;;;;;;;;;;7.44;74.35;97764.75;5108642;28;19958;-63
2022/12/30 13:33:37;;;;;;;;;;;;;;;7.33;75.16;97759.50;5093426;28;20419;-62
2022/12/30 13:36:30;;;;;;;;;;;;;;;7.41;74.95;97760.75;5108159;28;20407;-62
2022/12/30 13:39:00;;;;;;;;;;;;;;;7.44;74.95;97752.03;5124918;27;19924;-67
2022/12/30 13:41:36;;;;;;;;;;;;;;;7.29;75.29;97750.34;5110670;27;20430;-63
2022/12/30 13:44:04;;;;;;;;;;;;;;;7.44;75.47;97757.44;5106778;28;19978;-63
2022/12/30 13:46:37;;;;;;;;;;;;;;;7.35;75.77;97749.22;5102805;28;19934;-63
2022/12/30 13:49:05;;;;;;;;;;;;;;;7.41;76.15;97755.34;5088775;28;19932;-63
2022/12/30 13:51:34;;;;;;;;;;;;;;;7.33;76.06;97745.97;5087753;28;20152;-62
2022/12/30 13:54:08;;;;;;;;;;;;;;;7.36;75.53;97741.91;5087567;28;20627;-62
2022/12/30 13:56:37;;;;;;;;;;;;;;;7.32;75.73;97747.09;5115306;27;19948;-62
2022/12/30 13:59:05;;;;;;;;;;;;;;;7.27;76.28;97743.66;5108259;27;19955;-62
2022/12/30 14:01:36;;;;;;;;;;;;;;;7.28;75.82;97737.16;5108993;28;20354;-62
2022/12/30 14:04:34;;;;;;;;;;;;;;;7.29;75.78;97731.44;5107109;28;19935;-62
2022/12/30 14:07:03;;;;;;;;;;;;;;;7.28;75.94;97729.03;5048944;28;19928;-67
2022/12/30 14:09:31;;;;;;;;;;;;;;;7.18;76.55;97719.19;5096255;28;19932;-62
2022/12/30 14:12:18;;;;;;;;;;;;;;;7.16;76.52;97716.00;5089070;28;20370;-63
2022/12/30 14:14:49;;;;;;;;;;;;;;;7.27;76.07;97706.63;5108463;27;19935;-62
2022/12/30 14:17:19;;;;;;;;;;;;;;;7.21;76.42;97697.00;5127759;27;19927;-63
2022/12/30 14:19:50;;;;;;;;;;;;;;;7.18;76.92;97697.56;5126530;27;19927;-64
2022/12/30 14:22:36;;;;;;;;;;;;;;;7.21;77.11;97698.91;5105223;28;20139;-62
2022/12/30 14:25:12;;;;;;;;;;;;;;;7.23;77.21;97721.81;5080882;28;19935;-62
2022/12/30 14:28:05;;;;;;;;;;;;;;;7.17;77.34;97709.50;5109309;28;19949;-62
2022/12/30 14:30:59;;;;;;;;;;;;;;;7.18;77.69;97708.38;5112284;27;19924;-62
2022/12/30 14:33:28;;;;;;;;;;;;;;;7.12;77.06;97698.75;5111374;27;20342;-62
2022/12/30 14:36:01;;;;;;;;;;;;;;;7.18;77.26;97692.19;5103422;28;19928;-62
2022/12/30 14:38:31;;;;;;;;;;;;;;;7.12;77.69;97682.56;5102702;28;20584;-62
2022/12/30 14:41:08;;;;;;;;;;;;;;;7.24;77.20;97685.59;5089826;28;20381;-62
2022/12/30 14:43:40;;;;;;;;;;;;;;;7.14;77.80;97679.53;5108637;27;19923;-62
2022/12/30 14:46:27;;;;;;;;;;;;;;;7.14;77.79;97680.38;5107550;28;19930;-62